createdAt,value
2017-09-28T00:04:09.619Z,34.37
2017-09-28T00:06:35.899Z,37.03
2017-09-28T00:09:03.171Z,33.73
2017-09-28T00:11:32.540Z,35.10
2017-09-28T00:14:01.579Z,36.67
2017-09-28T00:16:27.839Z,35.23
2017-09-28T00:18:54.086Z,37.10
2017-09-28T00:21:21.376Z,33.60
2017-09-28T00:23:49.607Z,37.87
2017-09-28T00:26:15.838Z,44.00
2017-09-28T00:28:43.094Z,36.10
2017-09-28T00:31:09.351Z,34.77
2017-09-28T00:33:36.355Z,35.23
2017-09-28T00:36:04.819Z,32.60
2017-09-28T00:38:31.966Z,33.53
2017-09-28T00:40:59.307Z,35.50
2017-09-28T00:43:25.570Z,28.20
2017-09-28T00:45:51.808Z,32.60
2017-09-28T00:48:18.090Z,36.43
2017-09-28T00:50:44.365Z,34.90
2017-09-28T00:53:11.985Z,40.07
2017-09-28T00:55:38.227Z,31.40
2017-09-28T00:58:05.441Z,30.60
2017-09-28T01:00:31.699Z,32.83
2017-09-28T01:02:57.955Z,28.60
2017-09-28T01:05:24.235Z,33.13
2017-09-28T01:07:51.143Z,31.90
2017-09-28T01:10:19.640Z,32.23
2017-09-28T01:12:45.939Z,35.03
2017-09-28T01:15:12.999Z,35.17
2017-09-28T01:17:47.753Z,32.90
2017-09-28T01:20:19.809Z,37.73
2017-09-28T01:22:46.046Z,28.70
2017-09-28T01:25:12.299Z,30.80
2017-09-28T01:27:38.581Z,35.23
2017-09-28T01:30:04.823Z,40.27
2017-09-28T01:32:31.063Z,33.77
2017-09-28T01:34:57.374Z,30.53
2017-09-28T01:37:25.987Z,37.90
2017-09-28T01:39:52.234Z,30.07
2017-09-28T01:42:18.520Z,33.37
2017-09-28T01:44:44.758Z,29.10
2017-09-28T01:47:11.007Z,42.37
2017-09-28T01:49:38.003Z,36.90
2017-09-28T01:52:04.427Z,33.83
2017-09-28T01:54:30.703Z,32.20
2017-09-28T01:56:58.843Z,41.30
2017-09-28T01:59:25.194Z,32.07
2017-09-28T02:01:51.458Z,30.90
2017-09-28T02:04:17.766Z,32.63
2017-09-28T02:06:44.026Z,32.60
2017-09-28T02:09:10.275Z,37.77
2017-09-28T02:11:36.550Z,33.03
2017-09-28T02:14:02.801Z,34.60
2017-09-28T02:16:29.062Z,37.63
2017-09-28T02:21:28.390Z,28.50
2017-09-28T02:23:55.326Z,31.07
2017-09-28T02:26:21.567Z,35.53
2017-09-28T02:28:47.795Z,36.50
2017-09-28T02:31:14.046Z,33.67
2017-09-28T02:33:40.290Z,38.90
2017-09-28T02:36:06.550Z,31.17
2017-09-28T02:38:33.611Z,32.77
2017-09-28T02:40:59.858Z,32.93
2017-09-28T02:43:26.082Z,32.67
2017-09-28T02:45:54.145Z,34.20
2017-09-28T02:48:20.414Z,32.90
2017-09-28T02:50:46.653Z,34.40
2017-09-28T02:53:12.915Z,37.47
2017-09-28T02:55:39.157Z,34.43
2017-09-28T02:58:05.402Z,29.73
2017-09-28T03:00:32.583Z,38.37
2017-09-28T03:02:58.818Z,29.23
2017-09-28T03:05:25.054Z,31.80
2017-09-28T03:07:51.358Z,44.57
2017-09-28T03:10:17.595Z,36.23
2017-09-28T03:12:43.830Z,33.50
2017-09-28T03:15:10.096Z,36.60
2017-09-28T03:17:36.351Z,38.27
2017-09-28T03:20:03.349Z,34.27
2017-09-28T03:22:29.615Z,32.43
2017-09-28T03:24:55.862Z,31.23
2017-09-28T03:27:22.119Z,59.17
2017-09-28T03:29:48.384Z,35.30
2017-09-28T03:32:14.651Z,39.13
2017-09-28T03:34:41.664Z,36.40
2017-09-28T03:37:07.952Z,37.00
2017-09-28T03:39:34.202Z,30.23
2017-09-28T03:42:00.449Z,32.63
2017-09-28T03:44:26.699Z,34.03
2017-09-28T03:46:52.953Z,32.50
2017-09-28T03:49:19.954Z,36.47
2017-09-28T03:51:46.230Z,31.07
2017-09-28T03:54:12.487Z,37.80
2017-09-28T03:56:39.454Z,35.43
2017-09-28T03:59:05.729Z,29.53
2017-09-28T04:01:33.944Z,36.43
2017-09-28T04:04:00.191Z,37.47
2017-09-28T04:06:26.451Z,28.70
2017-09-28T04:08:52.689Z,31.80
2017-09-28T04:11:18.923Z,34.80
2017-09-28T04:13:45.186Z,31.47
2017-09-28T04:16:12.171Z,35.90
2017-09-28T04:18:38.438Z,34.00
2017-09-28T04:21:04.707Z,36.70
2017-09-28T04:23:30.959Z,33.07
2017-09-28T04:25:57.228Z,33.70
2017-09-28T04:28:23.623Z,28.37
2017-09-28T04:30:49.879Z,33.40
2017-09-28T04:33:16.142Z,54.03
2017-09-28T04:35:42.415Z,35.50
2017-09-28T04:38:08.703Z,36.73
2017-09-28T04:40:35.795Z,33.20
2017-09-28T04:43:02.102Z,37.23
2017-09-28T04:45:28.347Z,36.43
2017-09-28T04:47:55.291Z,36.27
2017-09-28T04:50:21.570Z,34.23
2017-09-28T04:52:47.806Z,35.50
2017-09-28T04:55:14.047Z,33.60
2017-09-28T04:57:40.344Z,33.63
2017-09-28T05:00:06.590Z,32.37
2017-09-28T05:02:32.990Z,41.03
2017-09-28T05:04:59.238Z,32.90
2017-09-28T05:07:25.510Z,37.90
2017-09-28T05:09:51.744Z,36.90
2017-09-28T05:12:18.018Z,35.33
2017-09-28T05:14:44.270Z,42.83
2017-09-28T05:17:10.502Z,45.17
2017-09-28T05:19:36.759Z,35.60
2017-09-28T05:22:03.035Z,41.23
2017-09-28T05:24:30.025Z,40.43
2017-09-28T05:26:56.481Z,44.20
2017-09-28T05:29:22.739Z,38.70
2017-09-28T05:31:49.080Z,35.17
2017-09-28T05:34:15.531Z,43.13
2017-09-28T05:36:42.575Z,30.37
2017-09-28T05:39:08.851Z,38.73
2017-09-28T05:41:35.142Z,35.60
2017-09-28T05:44:01.415Z,38.33
2017-09-28T05:46:27.682Z,45.53
2017-09-28T05:48:53.985Z,31.13
2017-09-28T05:51:20.250Z,35.27
2017-09-28T05:53:46.482Z,36.53
2017-09-28T05:56:12.781Z,37.13
2017-09-28T05:58:39.035Z,31.70
2017-09-28T06:01:05.287Z,40.10
2017-09-28T06:03:31.654Z,29.20
2017-09-28T06:05:57.919Z,44.10
2017-09-28T06:08:24.171Z,33.70
2017-09-28T06:10:50.450Z,33.87
2017-09-28T06:13:16.694Z,37.93
2017-09-28T06:15:42.939Z,30.87
2017-09-28T06:18:09.234Z,35.43
2017-09-28T06:20:35.481Z,43.27
2017-09-28T06:23:01.728Z,46.37
2017-09-28T06:25:28.027Z,37.97
2017-09-28T06:27:54.274Z,45.77
2017-09-28T06:30:20.522Z,39.40
2017-09-28T06:32:46.783Z,40.47
2017-09-28T06:35:13.059Z,36.47
2017-09-28T06:37:39.298Z,40.17
2017-09-28T06:40:06.576Z,41.13
2017-09-28T06:42:32.807Z,42.30
2017-09-28T06:44:59.071Z,38.37
2017-09-28T06:47:25.354Z,43.53
2017-09-28T06:49:51.605Z,42.07
2017-09-28T06:52:17.907Z,38.40
2017-09-28T06:54:44.192Z,48.67
2017-09-28T06:57:10.462Z,43.20
2017-09-28T06:59:36.690Z,46.23
2017-09-28T07:02:02.989Z,47.43
2017-09-28T07:04:29.367Z,40.50
2017-09-28T07:06:55.599Z,40.40
2017-09-28T07:09:21.894Z,44.80
2017-09-28T07:11:48.135Z,39.67
2017-09-28T07:14:14.366Z,46.80
2017-09-28T07:16:41.476Z,52.33
2017-09-28T07:19:07.751Z,48.40
2017-09-28T07:21:33.999Z,42.07
2017-09-28T07:24:00.259Z,46.80
2017-09-28T07:26:26.503Z,39.70
2017-09-28T07:28:53.522Z,42.60
2017-09-28T07:31:19.805Z,50.00
2017-09-28T07:33:46.063Z,47.90
2017-09-28T07:36:12.314Z,41.80
2017-09-28T07:38:38.595Z,45.87
2017-09-28T07:41:04.847Z,42.03
2017-09-28T07:43:31.096Z,47.03
2017-09-28T07:45:57.362Z,47.67
2017-09-28T07:48:23.625Z,55.20
2017-09-28T07:50:49.856Z,47.77
2017-09-28T07:53:16.134Z,48.33
2017-09-28T07:55:42.364Z,45.83
2017-09-28T07:58:08.601Z,42.53
2017-09-28T08:00:34.856Z,43.13
2017-09-28T08:03:01.128Z,45.33
2017-09-28T08:05:27.623Z,47.83
2017-09-28T08:07:53.882Z,48.20
2017-09-28T08:10:20.123Z,48.37
2017-09-28T08:12:46.353Z,47.03
2017-09-28T08:15:12.626Z,43.37
2017-09-28T08:17:38.870Z,44.07
2017-09-28T08:20:05.098Z,48.23
2017-09-28T08:22:31.362Z,47.63
2017-09-28T08:24:57.674Z,45.13
2017-09-28T08:27:23.910Z,57.67
2017-09-28T08:29:59.167Z,53.30
2017-09-28T08:32:25.447Z,62.67
2017-09-28T08:34:51.682Z,57.63
2017-09-28T08:37:17.938Z,62.77
2017-09-28T08:39:44.236Z,53.50
2017-09-28T08:42:10.491Z,55.87
2017-09-28T08:44:36.822Z,62.80
2017-09-28T08:47:10.011Z,63.60
2017-09-28T08:49:36.286Z,53.27
2017-09-28T08:52:02.578Z,61.73
2017-09-28T08:54:28.851Z,58.23
2017-09-28T08:56:55.117Z,66.50
2017-09-28T08:59:21.384Z,55.70
2017-09-28T09:01:47.685Z,62.70
2017-09-28T09:04:13.987Z,59.30
2017-09-28T09:06:40.339Z,62.00
2017-09-28T09:09:06.622Z,62.17
2017-09-28T09:11:32.874Z,62.57
2017-09-28T09:13:59.158Z,59.97
2017-09-28T09:16:25.381Z,65.70
2017-09-28T09:18:51.625Z,59.47
2017-09-28T09:21:17.909Z,66.23
2017-09-28T09:23:44.150Z,61.63
2017-09-28T09:26:10.990Z,68.53
2017-09-28T09:28:37.231Z,66.20
2017-09-28T09:31:04.216Z,58.87
2017-09-28T09:33:30.453Z,66.27
2017-09-28T09:35:56.718Z,60.97
2017-09-28T09:38:22.945Z,71.77
2017-09-28T09:40:49.194Z,63.57
2017-09-28T09:43:15.466Z,67.37
2017-09-28T09:45:41.718Z,66.07
2017-09-28T09:48:07.958Z,71.23
2017-09-28T09:50:34.238Z,63.40
2017-09-28T09:53:01.212Z,64.90
2017-09-28T09:55:27.602Z,60.47
2017-09-28T09:57:53.861Z,68.40
2017-09-28T10:00:20.107Z,67.23
2017-09-28T10:02:46.342Z,63.93
2017-09-28T10:05:12.593Z,77.63
2017-09-28T10:07:44.682Z,84.70
2017-09-28T10:10:15.952Z,70.87
2017-09-28T10:12:43.967Z,67.77
2017-09-28T10:15:15.790Z,64.57
2017-09-28T10:17:42.054Z,66.57
2017-09-28T10:20:08.322Z,63.70
2017-09-28T10:22:34.649Z,75.23
2017-09-28T10:25:00.899Z,68.20
2017-09-28T10:27:27.142Z,72.57
2017-09-28T10:29:53.409Z,73.67
2017-09-28T10:32:19.642Z,65.03
2017-09-28T10:34:45.875Z,65.13
2017-09-28T10:37:12.150Z,75.50
2017-09-28T10:39:38.585Z,76.13
2017-09-28T10:42:05.762Z,63.17
2017-09-28T10:44:32.751Z,61.17
2017-09-28T10:46:59.019Z,75.40
2017-09-28T10:49:25.270Z,74.10
2017-09-28T10:51:52.270Z,77.43
2017-09-28T10:54:18.522Z,65.00
2017-09-28T10:56:44.773Z,81.87
2017-09-28T10:59:11.056Z,75.60
2017-09-28T11:01:37.306Z,76.30
2017-09-28T11:04:03.557Z,89.90
2017-09-28T11:06:29.842Z,71.47
2017-09-28T11:08:56.134Z,76.73
2017-09-28T11:11:22.370Z,82.03
2017-09-28T11:13:48.615Z,76.33
2017-09-28T11:16:14.890Z,69.83
2017-09-28T11:18:41.150Z,77.17
2017-09-28T11:21:07.402Z,71.13
2017-09-28T11:23:34.405Z,71.37
2017-09-28T11:26:00.671Z,83.67
2017-09-28T11:28:26.932Z,80.00
2017-09-28T11:30:54.728Z,69.50
2017-09-28T11:33:20.958Z,83.90
2017-09-28T11:35:47.234Z,75.27
2017-09-28T11:38:13.465Z,73.27
2017-09-28T11:40:39.719Z,70.67
2017-09-28T11:43:05.987Z,73.47
2017-09-28T11:45:33.169Z,81.53
2017-09-28T11:47:59.438Z,70.03
2017-09-28T11:50:26.102Z,75.17
2017-09-28T11:52:52.338Z,78.30
2017-09-28T11:55:18.582Z,71.10
2017-09-28T11:57:45.047Z,79.40
2017-09-28T12:00:11.350Z,83.73
2017-09-28T12:02:37.599Z,80.33
2017-09-28T12:05:03.875Z,76.53
2017-09-28T12:07:30.105Z,82.90
2017-09-28T12:09:57.369Z,83.37
2017-09-28T12:12:23.637Z,75.77
2017-09-28T12:14:49.871Z,75.53
2017-09-28T12:17:16.114Z,81.30
2017-09-28T12:19:42.388Z,77.83
2017-09-28T12:22:08.618Z,84.33
2017-09-28T12:24:34.851Z,82.60
2017-09-28T12:27:01.168Z,78.60
2017-09-28T12:29:27.418Z,89.33
2017-09-28T12:31:53.954Z,79.87
2017-09-28T12:34:20.283Z,83.07
2017-09-28T12:36:47.242Z,86.33
2017-09-28T12:39:14.143Z,81.57
2017-09-28T12:41:40.434Z,84.83
2017-09-28T12:44:06.671Z,83.50
2017-09-28T12:46:33.410Z,78.43
2017-09-28T12:48:59.726Z,84.97
2017-09-28T12:51:25.986Z,86.77
2017-09-28T12:53:52.234Z,83.93
2017-09-28T12:56:18.587Z,89.93
2017-09-28T12:58:44.827Z,98.10
2017-09-28T13:01:11.079Z,79.77
2017-09-28T13:03:38.331Z,107.37
2017-09-28T13:06:04.564Z,88.10
2017-09-28T13:08:30.910Z,102.73
2017-09-28T13:10:58.135Z,85.63
2017-09-28T13:13:25.262Z,92.90
2017-09-28T13:15:51.490Z,90.57
2017-09-28T13:18:17.774Z,91.67
2017-09-28T13:20:44.024Z,105.80
2017-09-28T13:23:10.251Z,96.10
2017-09-28T13:25:36.535Z,94.47
2017-09-28T13:28:02.770Z,105.17
2017-09-28T13:30:29.012Z,85.10
2017-09-28T13:32:55.449Z,105.70
2017-09-28T13:35:21.910Z,100.97
2017-09-28T13:37:48.138Z,95.07
2017-09-28T13:40:14.426Z,99.30
2017-09-28T13:42:41.095Z,111.17
2017-09-28T13:45:08.248Z,111.97
2017-09-28T13:47:34.529Z,107.40
2017-09-28T13:50:00.774Z,106.90
2017-09-28T13:52:27.167Z,99.57
2017-09-28T13:54:53.414Z,93.77
2017-09-28T13:57:19.650Z,109.30
2017-09-28T13:59:45.894Z,103.87
2017-09-28T14:02:12.719Z,125.03
2017-09-28T14:04:38.951Z,94.27
2017-09-28T14:07:05.187Z,107.40
2017-09-28T14:09:32.351Z,115.27
2017-09-28T14:11:58.674Z,118.90
2017-09-28T14:14:24.922Z,97.23
2017-09-28T14:16:51.182Z,95.10
2017-09-28T14:19:18.143Z,112.00
2017-09-28T14:21:44.394Z,111.23
2017-09-28T14:24:10.714Z,112.33
2017-09-28T14:26:36.946Z,90.90
2017-09-28T14:29:03.198Z,124.47
2017-09-28T14:31:29.458Z,104.83
2017-09-28T14:33:55.694Z,113.47
2017-09-28T14:36:21.960Z,107.60
2017-09-28T14:38:48.235Z,108.77
2017-09-28T14:41:14.462Z,108.23
2017-09-28T14:43:40.710Z,100.17
2017-09-28T14:46:07.158Z,112.87
2017-09-28T14:48:33.386Z,107.67
2017-09-28T14:50:59.618Z,103.93
2017-09-28T14:53:26.638Z,100.03
2017-09-28T14:55:52.862Z,138.37
2017-09-28T14:58:19.109Z,116.83
2017-09-28T15:00:45.921Z,106.53
2017-09-28T15:03:12.147Z,122.57
2017-09-28T15:05:38.406Z,106.13
2017-09-28T15:08:07.762Z,109.97
2017-09-28T15:10:35.851Z,117.27
2017-09-28T15:13:02.468Z,120.33
2017-09-28T15:15:30.573Z,115.23
2017-09-28T15:17:57.818Z,104.60
2017-09-28T15:20:24.274Z,94.90
2017-09-28T15:22:50.715Z,117.03
2017-09-28T15:25:18.778Z,107.67
2017-09-28T15:27:46.051Z,126.07
2017-09-28T15:30:13.509Z,111.50
2017-09-28T15:32:39.895Z,105.87
2017-09-28T15:35:06.298Z,107.80
2017-09-28T15:37:33.634Z,100.77
2017-09-28T15:40:01.145Z,115.13
2017-09-28T15:42:30.296Z,103.87
2017-09-28T15:44:56.595Z,112.93
2017-09-28T15:47:22.854Z,101.10
2017-09-28T15:49:49.081Z,104.27
2017-09-28T15:52:15.342Z,101.60
2017-09-28T15:54:41.597Z,94.13
2017-09-28T15:57:08.673Z,99.80
2017-09-28T15:59:35.094Z,105.37
2017-09-28T16:02:01.451Z,100.93
2017-09-28T16:04:28.107Z,112.47
2017-09-28T16:06:54.536Z,101.10
2017-09-28T16:09:20.927Z,104.97
2017-09-28T16:11:47.312Z,102.67
2017-09-28T16:14:13.862Z,107.70
2017-09-28T16:16:40.268Z,107.77
2017-09-28T16:19:13.507Z,112.40
2017-09-28T16:21:39.742Z,110.67
2017-09-28T16:24:06.012Z,112.50
2017-09-28T16:26:32.270Z,121.73
2017-09-28T16:28:58.505Z,106.87
2017-09-28T16:31:24.810Z,122.83
2017-09-28T16:33:51.154Z,105.17
2017-09-28T16:36:17.387Z,110.03
2017-09-28T16:38:43.692Z,106.03
2017-09-28T16:41:10.075Z,112.87
2017-09-28T16:43:36.318Z,111.67
2017-09-28T16:46:02.568Z,104.00
2017-09-28T16:48:29.923Z,106.43
2017-09-28T16:50:56.158Z,111.37
2017-09-28T16:53:23.250Z,105.27
2017-09-28T16:55:49.550Z,106.07
2017-09-28T16:58:15.790Z,103.50
2017-09-28T17:00:42.037Z,117.90
2017-09-28T17:03:08.279Z,107.60
2017-09-28T17:05:34.506Z,102.40
2017-09-28T17:08:00.759Z,101.40
2017-09-28T17:10:27.212Z,109.97
2017-09-28T17:12:53.458Z,100.53
2017-09-28T17:15:19.767Z,103.47
2017-09-28T17:17:46.098Z,94.33
2017-09-28T17:20:12.347Z,98.93
2017-09-28T17:22:38.623Z,101.80
2017-09-28T17:25:05.662Z,104.67
2017-09-28T17:27:32.658Z,123.27
2017-09-28T17:29:59.645Z,103.97
2017-09-28T17:32:25.911Z,103.63
2017-09-28T17:34:52.139Z,100.77
2017-09-28T17:37:18.382Z,95.47
2017-09-28T17:39:44.638Z,109.83
2017-09-28T17:42:11.854Z,106.37
2017-09-28T17:44:38.104Z,98.00
2017-09-28T17:47:04.412Z,109.23
2017-09-28T17:49:30.643Z,108.20
2017-09-28T17:51:56.897Z,107.73
2017-09-28T17:54:23.218Z,105.63
2017-09-28T17:56:49.563Z,104.43
2017-09-28T17:59:15.796Z,116.33
2017-09-28T18:01:42.090Z,111.77
2017-09-28T18:04:08.343Z,108.27
2017-09-28T18:06:36.176Z,116.80
2017-09-28T18:09:02.454Z,98.93
2017-09-28T18:11:28.922Z,106.27
2017-09-28T18:13:55.875Z,100.97
2017-09-28T18:16:22.362Z,101.37
2017-09-28T18:18:48.682Z,112.43
2017-09-28T18:21:14.960Z,120.60
2017-09-28T18:23:41.309Z,97.10
2017-09-28T18:26:07.649Z,113.87
2017-09-28T18:28:33.970Z,108.13
2017-09-28T18:31:00.402Z,119.17
2017-09-28T18:33:26.715Z,113.77
2017-09-28T18:35:53.079Z,114.60
2017-09-28T18:38:19.390Z,113.47
2017-09-28T18:40:45.708Z,106.83
2017-09-28T18:43:12.047Z,111.87
2017-09-28T18:45:39.178Z,115.63
2017-09-28T18:48:05.495Z,116.30
2017-09-28T18:50:32.566Z,109.77
2017-09-28T18:52:58.913Z,108.50
2017-09-28T18:55:25.377Z,103.90
2017-09-28T18:57:52.161Z,117.33
2017-09-28T19:00:18.520Z,122.73
2017-09-28T19:02:44.902Z,105.50
2017-09-28T19:05:12.000Z,114.07
2017-09-28T19:07:38.548Z,125.47
2017-09-28T19:10:05.638Z,116.07
2017-09-28T19:12:32.158Z,105.03
2017-09-28T19:14:59.234Z,117.30
2017-09-28T19:17:25.665Z,106.60
2017-09-28T19:19:51.945Z,108.93
2017-09-28T19:22:18.248Z,113.93
2017-09-28T19:24:45.294Z,107.90
2017-09-28T19:27:11.661Z,155.87
2017-09-28T19:29:38.024Z,155.20
2017-09-28T19:32:05.351Z,165.70
2017-09-28T19:34:31.702Z,158.37
2017-09-28T19:36:57.970Z,141.40
2017-09-28T19:39:25.119Z,119.97
2017-09-28T19:41:51.439Z,120.97
2017-09-28T19:44:17.796Z,105.37
2017-09-28T19:46:44.115Z,105.80
2017-09-28T19:49:10.461Z,117.33
2017-09-28T19:51:37.578Z,107.20
2017-09-28T19:54:03.937Z,127.60
2017-09-28T19:56:31.178Z,136.30
2017-09-28T19:58:58.257Z,130.20
2017-09-28T20:01:24.575Z,126.13
2017-09-28T20:03:50.926Z,109.43
2017-09-28T20:06:17.981Z,119.73
2017-09-28T20:08:44.275Z,115.60
2017-09-28T20:11:10.581Z,115.90
2017-09-28T20:13:36.901Z,109.30
2017-09-28T20:16:03.146Z,107.30
2017-09-28T20:18:29.548Z,114.93
2017-09-28T20:20:56.576Z,111.27
2017-09-28T20:23:22.912Z,114.03
2017-09-28T20:25:49.191Z,117.80
2017-09-28T20:28:15.510Z,111.23
2017-09-28T20:30:41.771Z,113.33
2017-09-28T20:33:15.247Z,118.23
2017-09-28T20:35:41.610Z,129.67
2017-09-28T20:38:07.926Z,107.73
2017-09-28T20:40:35.335Z,122.70
2017-09-28T20:43:01.714Z,124.60
2017-09-28T20:45:27.960Z,120.80
2017-09-28T20:47:54.302Z,124.50
2017-09-28T20:50:21.558Z,125.57
2017-09-28T20:52:47.795Z,102.23
2017-09-28T20:55:14.050Z,113.90
2017-09-28T20:57:40.487Z,113.93
2017-09-28T21:00:06.710Z,125.53
2017-09-28T21:02:33.195Z,117.87
2017-09-28T21:04:59.528Z,112.60
2017-09-28T21:07:25.786Z,123.20
2017-09-28T21:09:52.027Z,116.40
2017-09-28T21:12:18.396Z,118.20
2017-09-28T21:14:45.337Z,114.73
2017-09-28T21:17:11.582Z,120.80
2017-09-28T21:19:38.222Z,120.13
2017-09-28T21:22:05.203Z,119.93
2017-09-28T21:24:31.456Z,114.40
2017-09-28T21:26:57.855Z,105.77
2017-09-28T21:29:25.843Z,106.23
2017-09-28T21:31:52.081Z,101.13
2017-09-28T21:34:18.378Z,108.53
2017-09-28T21:36:45.346Z,117.13
2017-09-28T21:39:11.593Z,116.60
2017-09-28T21:41:38.845Z,116.67
2017-09-28T21:44:05.106Z,108.47
2017-09-28T21:46:31.430Z,94.07
2017-09-28T21:48:57.766Z,105.90
2017-09-28T21:51:24.019Z,98.20
2017-09-28T21:53:50.290Z,111.77
2017-09-28T21:56:16.570Z,103.83
2017-09-28T21:58:42.830Z,103.20
2017-09-28T22:01:09.822Z,106.63
2017-09-28T22:03:43.079Z,122.47
2017-09-28T22:06:10.090Z,95.40
2017-09-28T22:08:36.334Z,85.70
2017-09-28T22:11:02.666Z,94.07
2017-09-28T22:13:29.026Z,81.63
2017-09-28T22:15:56.402Z,88.43
2017-09-28T22:18:22.830Z,81.33
2017-09-28T22:20:49.202Z,86.73
2017-09-28T22:23:15.443Z,86.60
2017-09-28T22:25:41.720Z,84.40
2017-09-28T22:28:07.968Z,80.30
2017-09-28T22:30:35.202Z,73.33
2017-09-28T22:33:01.523Z,69.00
2017-09-28T22:35:27.834Z,70.67
2017-09-28T22:37:54.070Z,74.60
2017-09-28T22:40:21.827Z,70.90
2017-09-28T22:42:48.197Z,71.10
2017-09-28T22:45:14.564Z,74.27
2017-09-28T22:47:40.931Z,72.83
2017-09-28T22:50:07.300Z,63.77
2017-09-28T22:52:33.648Z,74.47
2017-09-28T22:55:00.030Z,73.20
2017-09-28T22:57:26.352Z,70.67
2017-09-28T22:59:52.682Z,70.17
2017-09-28T23:02:18.926Z,69.60
2017-09-28T23:04:45.162Z,60.03
2017-09-28T23:07:11.435Z,64.60
2017-09-28T23:09:38.434Z,60.23
2017-09-28T23:12:04.721Z,55.00
2017-09-28T23:14:31.474Z,63.80
2017-09-28T23:16:57.838Z,67.90
2017-09-28T23:19:24.098Z,61.73
2017-09-28T23:21:51.186Z,63.40
2017-09-28T23:24:17.430Z,60.10
2017-09-28T23:26:43.662Z,58.23
2017-09-28T23:29:09.907Z,52.30
2017-09-28T23:31:36.178Z,58.77
2017-09-28T23:34:02.487Z,63.43
2017-09-28T23:36:28.731Z,57.77
2017-09-28T23:38:55.011Z,62.13
2017-09-28T23:41:21.251Z,65.23
2017-09-28T23:43:47.568Z,60.80
2017-09-28T23:46:13.832Z,58.90
2017-09-28T23:48:41.994Z,61.20
2017-09-28T23:51:08.233Z,58.53
2017-09-28T23:53:34.507Z,59.37
2017-09-28T23:56:01.666Z,64.80
2017-09-28T23:58:27.927Z,54.40
